sensor_id;sensor_type;location;lat;lon;timestamp;P1;durP1;ratioP1;P2;durP2;ratioP2
66581;SDS011;53438;48.898;2.308;2022-12-20T00:01:22;8.03;;;3.40;;
66581;SDS011;53438;48.898;2.308;2022-12-20T00:03:50;5.40;;;3.47;;
66581;SDS011;53438;48.898;2.308;2022-12-20T00:06:16;7.43;;;3.33;;
66581;SDS011;53438;48.898;2.308;2022-12-20T00:08:42;9.07;;;3.05;;
66581;SDS011;53438;48.898;2.308;2022-12-20T00:11:09;8.67;;;4.20;;
66581;SDS011;53438;48.898;2.308;2022-12-20T00:13:35;7.97;;;3.42;;
66581;SDS011;53438;48.898;2.308;2022-12-20T00:16:04;7.20;;;2.90;;
66581;SDS011;53438;48.898;2.308;2022-12-20T00:18:34;6.90;;;3.10;;
66581;SDS011;53438;48.898;2.308;2022-12-20T00:21:01;5.20;;;2.95;;
66581;SDS011;53438;48.898;2.308;2022-12-20T00:23:27;5.32;;;3.13;;
66581;SDS011;53438;48.898;2.308;2022-12-20T00:25:59;5.63;;;2.80;;
66581;SDS011;53438;48.898;2.308;2022-12-20T00:28:25;6.37;;;2.83;;
66581;SDS011;53438;48.898;2.308;2022-12-20T00:30:54;5.57;;;2.70;;
66581;SDS011;53438;48.898;2.308;2022-12-20T00:33:19;7.53;;;3.43;;
66581;SDS011;53438;48.898;2.308;2022-12-20T00:35:45;6.13;;;3.22;;
66581;SDS011;53438;48.898;2.308;2022-12-20T00:38:10;5.60;;;3.00;;
66581;SDS011;53438;48.898;2.308;2022-12-20T00:40:35;5.57;;;2.60;;
66581;SDS011;53438;48.898;2.308;2022-12-20T00:43:01;5.53;;;2.70;;
66581;SDS011;53438;48.898;2.308;2022-12-20T00:45:26;5.07;;;3.03;;
66581;SDS011;53438;48.898;2.308;2022-12-20T00:47:52;3.90;;;2.58;;
66581;SDS011;53438;48.898;2.308;2022-12-20T00:50:17;6.43;;;3.08;;
66581;SDS011;53438;48.898;2.308;2022-12-20T00:52:42;5.90;;;3.07;;
66581;SDS011;53438;48.898;2.308;2022-12-20T00:55:08;5.53;;;2.53;;
66581;SDS011;53438;48.898;2.308;2022-12-20T00:57:34;5.07;;;2.57;;
66581;SDS011;53438;48.898;2.308;2022-12-20T00:59:59;5.10;;;2.78;;
66581;SDS011;53438;48.898;2.308;2022-12-20T04:01:21;5.73;;;2.50;;
66581;SDS011;53438;48.898;2.308;2022-12-20T04:03:48;5.10;;;2.78;;
66581;SDS011;53438;48.898;2.308;2022-12-20T04:06:15;5.35;;;2.70;;
66581;SDS011;53438;48.898;2.308;2022-12-20T04:08:41;8.20;;;2.70;;
66581;SDS011;53438;48.898;2.308;2022-12-20T04:11:06;5.63;;;2.80;;
66581;SDS011;53438;48.898;2.308;2022-12-20T04:13:44;4.90;;;2.13;;
66581;SDS011;53438;48.898;2.308;2022-12-20T04:16:11;5.53;;;2.50;;
66581;SDS011;53438;48.898;2.308;2022-12-20T04:18:38;6.20;;;2.60;;
66581;SDS011;53438;48.898;2.308;2022-12-20T04:21:03;3.92;;;2.53;;
66581;SDS011;53438;48.898;2.308;2022-12-20T04:23:31;3.40;;;2.13;;
66581;SDS011;53438;48.898;2.308;2022-12-20T04:25:57;4.78;;;2.47;;
66581;SDS011;53438;48.898;2.308;2022-12-20T04:28:23;4.53;;;2.23;;
66581;SDS011;53438;48.898;2.308;2022-12-20T04:30:48;4.78;;;2.75;;
66581;SDS011;53438;48.898;2.308;2022-12-20T04:33:13;6.80;;;2.20;;
66581;SDS011;53438;48.898;2.308;2022-12-20T04:35:42;4.30;;;2.13;;
66581;SDS011;53438;48.898;2.308;2022-12-20T04:38:08;4.50;;;1.92;;
66581;SDS011;53438;48.898;2.308;2022-12-20T04:40:33;3.53;;;1.90;;
66581;SDS011;53438;48.898;2.308;2022-12-20T04:42:58;3.90;;;1.70;;
66581;SDS011;53438;48.898;2.308;2022-12-20T04:45:24;5.67;;;2.10;;
66581;SDS011;53438;48.898;2.308;2022-12-20T04:47:49;4.05;;;1.90;;
66581;SDS011;53438;48.898;2.308;2022-12-20T04:50:15;4.25;;;1.52;;
66581;SDS011;53438;48.898;2.308;2022-12-20T04:52:40;3.83;;;1.70;;
66581;SDS011;53438;48.898;2.308;2022-12-20T04:55:25;5.65;;;2.28;;
66581;SDS011;53438;48.898;2.308;2022-12-20T04:57:50;5.10;;;2.50;;
66581;SDS011;53438;48.898;2.308;2022-12-20T05:00:16;3.17;;;1.77;;
66581;SDS011;53438;48.898;2.308;2022-12-20T05:02:41;3.75;;;1.90;;
66581;SDS011;53438;48.898;2.308;2022-12-20T05:05:07;2.60;;;1.80;;
66581;SDS011;53438;48.898;2.308;2022-12-20T05:07:32;4.07;;;2.27;;
66581;SDS011;53438;48.898;2.308;2022-12-20T05:09:58;4.53;;;2.15;;
66581;SDS011;53438;48.898;2.308;2022-12-20T05:12:23;4.25;;;2.03;;
66581;SDS011;53438;48.898;2.308;2022-12-20T05:14:49;4.47;;;1.90;;
66581;SDS011;53438;48.898;2.308;2022-12-20T05:17:14;2.83;;;1.63;;
66581;SDS011;53438;48.898;2.308;2022-12-20T05:19:39;5.23;;;1.90;;
66581;SDS011;53438;48.898;2.308;2022-12-20T05:22:05;5.45;;;1.92;;
66581;SDS011;53438;48.898;2.308;2022-12-20T05:24:49;3.33;;;1.50;;
66581;SDS011;53438;48.898;2.308;2022-12-20T05:27:33;7.70;;;1.67;;
66581;SDS011;53438;48.898;2.308;2022-12-20T05:29:58;3.07;;;1.47;;
66581;SDS011;53438;48.898;2.308;2022-12-20T05:32:24;2.40;;;1.20;;
66581;SDS011;53438;48.898;2.308;2022-12-20T05:34:49;3.30;;;1.80;;
66581;SDS011;53438;48.898;2.308;2022-12-20T05:37:14;3.03;;;1.40;;
66581;SDS011;53438;48.898;2.308;2022-12-20T05:39:40;2.37;;;1.30;;
66581;SDS011;53438;48.898;2.308;2022-12-20T05:42:05;4.53;;;1.50;;
66581;SDS011;53438;48.898;2.308;2022-12-20T05:44:30;4.53;;;1.40;;
66581;SDS011;53438;48.898;2.308;2022-12-20T05:46:56;3.97;;;1.40;;
66581;SDS011;53438;48.898;2.308;2022-12-20T05:49:21;3.37;;;1.50;;
66581;SDS011;53438;48.898;2.308;2022-12-20T05:51:46;3.90;;;1.17;;
66581;SDS011;53438;48.898;2.308;2022-12-20T05:54:12;2.80;;;1.07;;
66581;SDS011;53438;48.898;2.308;2022-12-20T05:56:37;4.50;;;1.73;;
66581;SDS011;53438;48.898;2.308;2022-12-20T05:59:02;2.45;;;1.27;;
66581;SDS011;53438;48.898;2.308;2022-12-20T06:01:28;4.80;;;1.60;;
66581;SDS011;53438;48.898;2.308;2022-12-20T06:03:53;5.50;;;1.50;;
66581;SDS011;53438;48.898;2.308;2022-12-20T06:06:18;5.67;;;1.30;;
66581;SDS011;53438;48.898;2.308;2022-12-20T06:08:44;6.40;;;1.77;;
66581;SDS011;53438;48.898;2.308;2022-12-20T06:11:09;6.53;;;1.63;;
66581;SDS011;53438;48.898;2.308;2022-12-20T06:13:35;4.50;;;1.20;;
66581;SDS011;53438;48.898;2.308;2022-12-20T06:16:00;4.17;;;1.43;;
66581;SDS011;53438;48.898;2.308;2022-12-20T06:18:26;4.83;;;1.60;;
66581;SDS011;53438;48.898;2.308;2022-12-20T06:20:51;2.50;;;1.57;;
66581;SDS011;53438;48.898;2.308;2022-12-20T06:23:17;5.88;;;1.60;;
66581;SDS011;53438;48.898;2.308;2022-12-20T06:25:44;5.63;;;1.27;;
66581;SDS011;53438;48.898;2.308;2022-12-20T06:28:10;4.13;;;1.63;;
66581;SDS011;53438;48.898;2.308;2022-12-20T06:30:35;4.57;;;1.70;;
66581;SDS011;53438;48.898;2.308;2022-12-20T06:33:01;4.27;;;1.03;;
66581;SDS011;53438;48.898;2.308;2022-12-20T06:35:26;2.45;;;1.20;;
66581;SDS011;53438;48.898;2.308;2022-12-20T06:37:52;4.45;;;1.67;;
66581;SDS011;53438;48.898;2.308;2022-12-20T06:40:17;2.90;;;1.00;;
66581;SDS011;53438;48.898;2.308;2022-12-20T06:42:43;5.30;;;1.50;;
66581;SDS011;53438;48.898;2.308;2022-12-20T06:45:08;5.47;;;1.80;;
66581;SDS011;53438;48.898;2.308;2022-12-20T06:47:34;3.07;;;1.30;;
66581;SDS011;53438;48.898;2.308;2022-12-20T06:50:00;5.32;;;1.48;;
66581;SDS011;53438;48.898;2.308;2022-12-20T06:52:26;2.80;;;0.80;;
66581;SDS011;53438;48.898;2.308;2022-12-20T06:54:51;6.05;;;1.23;;
66581;SDS011;53438;48.898;2.308;2022-12-20T06:57:16;3.58;;;1.48;;
66581;SDS011;53438;48.898;2.308;2022-12-20T06:59:42;3.43;;;1.27;;
66581;SDS011;53438;48.898;2.308;2022-12-20T07:02:09;3.53;;;1.13;;
66581;SDS011;53438;48.898;2.308;2022-12-20T07:04:35;3.35;;;1.40;;
66581;SDS011;53438;48.898;2.308;2022-12-20T07:07:01;4.23;;;1.60;;
66581;SDS011;53438;48.898;2.308;2022-12-20T07:09:27;3.58;;;1.13;;
66581;SDS011;53438;48.898;2.308;2022-12-20T07:11:53;2.63;;;0.95;;
66581;SDS011;53438;48.898;2.308;2022-12-20T07:14:19;4.63;;;1.30;;
66581;SDS011;53438;48.898;2.308;2022-12-20T07:16:44;5.57;;;1.27;;
66581;SDS011;53438;48.898;2.308;2022-12-20T07:19:10;3.83;;;1.27;;
66581;SDS011;53438;48.898;2.308;2022-12-20T07:21:36;3.95;;;1.63;;
66581;SDS011;53438;48.898;2.308;2022-12-20T07:24:02;7.20;;;1.40;;
66581;SDS011;53438;48.898;2.308;2022-12-20T07:26:28;5.60;;;1.50;;
66581;SDS011;53438;48.898;2.308;2022-12-20T07:28:53;3.35;;;1.40;;
66581;SDS011;53438;48.898;2.308;2022-12-20T07:31:19;2.40;;;1.57;;
66581;SDS011;53438;48.898;2.308;2022-12-20T07:33:44;5.90;;;2.00;;
66581;SDS011;53438;48.898;2.308;2022-12-20T07:36:10;4.57;;;1.50;;
66581;SDS011;53438;48.898;2.308;2022-12-20T07:38:37;3.83;;;1.70;;
66581;SDS011;53438;48.898;2.308;2022-12-20T07:41:09;6.90;;;2.00;;
66581;SDS011;53438;48.898;2.308;2022-12-20T07:43:37;5.10;;;1.92;;
66581;SDS011;53438;48.898;2.308;2022-12-20T07:46:03;5.03;;;1.83;;
66581;SDS011;53438;48.898;2.308;2022-12-20T07:48:30;3.58;;;1.65;;
66581;SDS011;53438;48.898;2.308;2022-12-20T07:51:00;4.43;;;1.95;;
66581;SDS011;53438;48.898;2.308;2022-12-20T07:53:30;4.35;;;1.60;;
66581;SDS011;53438;48.898;2.308;2022-12-20T07:55:57;4.60;;;1.30;;
66581;SDS011;53438;48.898;2.308;2022-12-20T07:58:25;5.97;;;1.80;;
66581;SDS011;53438;48.898;2.308;2022-12-20T08:00:51;9.82;;;2.20;;
66581;SDS011;53438;48.898;2.308;2022-12-20T08:03:21;7.37;;;1.87;;
66581;SDS011;53438;48.898;2.308;2022-12-20T08:05:50;5.32;;;1.40;;
66581;SDS011;53438;48.898;2.308;2022-12-20T08:08:19;3.85;;;1.25;;
66581;SDS011;53438;48.898;2.308;2022-12-20T08:10:46;3.50;;;1.60;;
66581;SDS011;53438;48.898;2.308;2022-12-20T08:13:12;7.47;;;2.00;;
66581;SDS011;53438;48.898;2.308;2022-12-20T08:15:38;8.18;;;1.45;;
66581;SDS011;53438;48.898;2.308;2022-12-20T08:18:03;4.33;;;2.23;;
66581;SDS011;53438;48.898;2.308;2022-12-20T08:20:30;5.63;;;2.65;;
66581;SDS011;53438;48.898;2.308;2022-12-20T08:22:56;3.17;;;1.10;;
66581;SDS011;53438;48.898;2.308;2022-12-20T08:25:21;4.77;;;1.30;;
66581;SDS011;53438;48.898;2.308;2022-12-20T08:27:47;6.28;;;1.63;;
66581;SDS011;53438;48.898;2.308;2022-12-20T08:30:13;4.03;;;1.40;;
66581;SDS011;53438;48.898;2.308;2022-12-20T08:32:39;3.38;;;1.27;;
66581;SDS011;53438;48.898;2.308;2022-12-20T08:35:04;5.30;;;1.70;;
66581;SDS011;53438;48.898;2.308;2022-12-20T08:37:30;5.88;;;1.30;;
66581;SDS011;53438;48.898;2.308;2022-12-20T08:39:56;7.27;;;1.20;;
66581;SDS011;53438;48.898;2.308;2022-12-20T08:42:21;7.80;;;1.10;;
66581;SDS011;53438;48.898;2.308;2022-12-20T08:44:47;3.50;;;1.00;;
66581;SDS011;53438;48.898;2.308;2022-12-20T08:47:12;4.23;;;1.20;;
66581;SDS011;53438;48.898;2.308;2022-12-20T08:49:37;3.67;;;1.17;;
66581;SDS011;53438;48.898;2.308;2022-12-20T08:52:03;8.25;;;1.98;;
66581;SDS011;53438;48.898;2.308;2022-12-20T08:54:29;7.77;;;1.20;;
66581;SDS011;53438;48.898;2.308;2022-12-20T08:56:54;5.43;;;1.83;;
66581;SDS011;53438;48.898;2.308;2022-12-20T08:59:19;5.07;;;1.67;;
66581;SDS011;53438;48.898;2.308;2022-12-20T09:01:45;5.93;;;2.07;;
66581;SDS011;53438;48.898;2.308;2022-12-20T09:04:10;5.07;;;1.10;;
66581;SDS011;53438;48.898;2.308;2022-12-20T09:06:36;4.93;;;1.33;;
66581;SDS011;53438;48.898;2.308;2022-12-20T09:09:02;9.63;;;1.35;;
66581;SDS011;53438;48.898;2.308;2022-12-20T09:11:28;4.50;;;1.05;;
66581;SDS011;53438;48.898;2.308;2022-12-20T09:13:54;6.57;;;1.60;;
66581;SDS011;53438;48.898;2.308;2022-12-20T09:16:22;4.65;;;1.23;;
66581;SDS011;53438;48.898;2.308;2022-12-20T09:18:50;5.32;;;1.25;;
66581;SDS011;53438;48.898;2.308;2022-12-20T09:21:17;11.20;;;5.27;;
66581;SDS011;53438;48.898;2.308;2022-12-20T09:23:44;8.50;;;1.80;;
66581;SDS011;53438;48.898;2.308;2022-12-20T09:26:11;4.90;;;1.67;;
66581;SDS011;53438;48.898;2.308;2022-12-20T09:28:37;5.00;;;1.60;;
66581;SDS011;53438;48.898;2.308;2022-12-20T09:31:04;7.10;;;1.70;;
66581;SDS011;53438;48.898;2.308;2022-12-20T09:33:32;6.00;;;1.13;;
66581;SDS011;53438;48.898;2.308;2022-12-20T09:35:58;5.68;;;1.55;;
66581;SDS011;53438;48.898;2.308;2022-12-20T09:38:25;6.07;;;1.10;;
66581;SDS011;53438;48.898;2.308;2022-12-20T09:40:55;6.60;;;1.40;;
66581;SDS011;53438;48.898;2.308;2022-12-20T09:43:22;6.30;;;1.42;;
66581;SDS011;53438;48.898;2.308;2022-12-20T09:45:52;3.83;;;1.48;;
66581;SDS011;53438;48.898;2.308;2022-12-20T09:48:25;6.03;;;1.35;;
66581;SDS011;53438;48.898;2.308;2022-12-20T09:56:26;3.85;;;1.80;;
66581;SDS011;53438;48.898;2.308;2022-12-20T09:58:58;3.47;;;1.40;;
66581;SDS011;53438;48.898;2.308;2022-12-20T10:01:29;5.15;;;1.60;;
66581;SDS011;53438;48.898;2.308;2022-12-20T10:04:01;8.57;;;2.10;;
66581;SDS011;53438;48.898;2.308;2022-12-20T10:17:32;4.30;;;2.03;;
66581;SDS011;53438;48.898;2.308;2022-12-20T10:20:21;4.90;;;2.15;;
66581;SDS011;53438;48.898;2.308;2022-12-20T10:25:52;6.68;;;1.70;;
66581;SDS011;53438;48.898;2.308;2022-12-20T10:28:22;11.75;;;1.92;;
66581;SDS011;53438;48.898;2.308;2022-12-20T10:30:52;4.23;;;1.90;;
66581;SDS011;53438;48.898;2.308;2022-12-20T10:33:21;7.53;;;2.75;;
66581;SDS011;53438;48.898;2.308;2022-12-20T10:35:47;12.32;;;2.50;;
66581;SDS011;53438;48.898;2.308;2022-12-20T10:38:14;5.47;;;2.13;;
66581;SDS011;53438;48.898;2.308;2022-12-20T10:40:43;6.32;;;1.52;;
66581;SDS011;53438;48.898;2.308;2022-12-20T10:43:17;6.80;;;1.73;;
66581;SDS011;53438;48.898;2.308;2022-12-20T10:45:54;6.83;;;2.37;;
66581;SDS011;53438;48.898;2.308;2022-12-20T10:48:31;4.55;;;2.28;;
66581;SDS011;53438;48.898;2.308;2022-12-20T10:51:03;4.55;;;2.13;;
66581;SDS011;53438;48.898;2.308;2022-12-20T10:53:35;7.75;;;2.25;;
66581;SDS011;53438;48.898;2.308;2022-12-20T10:56:46;10.98;;;2.80;;
66581;SDS011;53438;48.898;2.308;2022-12-20T10:58:51;5.57;;;2.90;;
66581;SDS011;53438;48.898;2.308;2022-12-20T11:01:21;7.78;;;2.15;;
66581;SDS011;53438;48.898;2.308;2022-12-20T11:06:21;7.03;;;2.30;;
66581;SDS011;53438;48.898;2.308;2022-12-20T11:08:50;7.45;;;2.80;;
66581;SDS011;53438;48.898;2.308;2022-12-20T11:11:17;4.80;;;2.00;;
66581;SDS011;53438;48.898;2.308;2022-12-20T11:13:47;5.53;;;2.38;;
66581;SDS011;53438;48.898;2.308;2022-12-20T11:16:33;4.80;;;2.00;;
66581;SDS011;53438;48.898;2.308;2022-12-20T11:22:40;5.72;;;2.63;;
66581;SDS011;53438;48.898;2.308;2022-12-20T11:30:18;7.72;;;2.83;;
66581;SDS011;53438;48.898;2.308;2022-12-20T11:33:01;7.73;;;2.83;;
66581;SDS011;53438;48.898;2.308;2022-12-20T11:35:54;5.10;;;2.60;;
66581;SDS011;53438;48.898;2.308;2022-12-20T11:38:33;4.30;;;2.50;;
66581;SDS011;53438;48.898;2.308;2022-12-20T11:52:35;5.57;;;2.42;;
66581;SDS011;53438;48.898;2.308;2022-12-20T11:55:12;6.13;;;2.90;;
66581;SDS011;53438;48.898;2.308;2022-12-20T12:00:51;7.27;;;3.57;;
66581;SDS011;53438;48.898;2.308;2022-12-20T12:03:26;9.02;;;3.65;;
66581;SDS011;53438;48.898;2.308;2022-12-20T12:05:55;7.82;;;2.60;;
66581;SDS011;53438;48.898;2.308;2022-12-20T12:08:29;5.88;;;2.78;;
66581;SDS011;53438;48.898;2.308;2022-12-20T12:11:04;8.82;;;2.92;;
66581;SDS011;53438;48.898;2.308;2022-12-20T12:13:35;6.63;;;2.57;;
66581;SDS011;53438;48.898;2.308;2022-12-20T12:16:20;8.35;;;2.58;;
66581;SDS011;53438;48.898;2.308;2022-12-20T12:18:49;10.93;;;3.08;;
66581;SDS011;53438;48.898;2.308;2022-12-20T12:21:26;7.70;;;3.25;;
66581;SDS011;53438;48.898;2.308;2022-12-20T12:24:08;17.23;;;3.83;;
66581;SDS011;53438;48.898;2.308;2022-12-20T12:26:38;6.90;;;2.83;;
66581;SDS011;53438;48.898;2.308;2022-12-20T12:31:48;6.60;;;2.88;;
66581;SDS011;53438;48.898;2.308;2022-12-20T12:34:19;11.98;;;3.30;;
66581;SDS011;53438;48.898;2.308;2022-12-20T12:47:53;8.57;;;3.50;;
66581;SDS011;53438;48.898;2.308;2022-12-20T12:50:29;8.00;;;2.53;;
66581;SDS011;53438;48.898;2.308;2022-12-20T12:53:06;6.40;;;2.83;;
66581;SDS011;53438;48.898;2.308;2022-12-20T12:55:42;8.37;;;3.10;;
66581;SDS011;53438;48.898;2.308;2022-12-20T13:00:50;14.68;;;4.38;;
66581;SDS011;53438;48.898;2.308;2022-12-20T13:11:40;8.60;;;2.65;;
66581;SDS011;53438;48.898;2.308;2022-12-20T13:14:48;4.97;;;2.63;;
66581;SDS011;53438;48.898;2.308;2022-12-20T13:21:59;6.67;;;2.33;;
66581;SDS011;53438;48.898;2.308;2022-12-20T13:27:22;5.07;;;2.80;;
66581;SDS011;53438;48.898;2.308;2022-12-20T13:38:02;7.57;;;4.13;;
66581;SDS011;53438;48.898;2.308;2022-12-20T13:40:49;10.10;;;4.20;;
66581;SDS011;53438;48.898;2.308;2022-12-20T13:43:25;5.20;;;3.28;;
66581;SDS011;53438;48.898;2.308;2022-12-20T13:45:56;8.68;;;3.08;;
66581;SDS011;53438;48.898;2.308;2022-12-20T13:48:33;7.15;;;3.03;;
66581;SDS011;53438;48.898;2.308;2022-12-20T13:51:21;6.13;;;2.50;;
66581;SDS011;53438;48.898;2.308;2022-12-20T13:53:59;8.63;;;3.15;;
66581;SDS011;53438;48.898;2.308;2022-12-20T13:58:53;7.00;;;2.50;;
66581;SDS011;53438;48.898;2.308;2022-12-20T14:01:20;7.75;;;3.28;;
66581;SDS011;53438;48.898;2.308;2022-12-20T14:03:49;5.55;;;3.03;;
66581;SDS011;53438;48.898;2.308;2022-12-20T14:06:17;9.57;;;2.83;;
66581;SDS011;53438;48.898;2.308;2022-12-20T14:08:49;10.07;;;2.70;;
66581;SDS011;53438;48.898;2.308;2022-12-20T14:11:16;6.03;;;2.50;;
66581;SDS011;53438;48.898;2.308;2022-12-20T14:13:50;6.90;;;2.55;;
66581;SDS011;53438;48.898;2.308;2022-12-20T14:16:23;5.78;;;2.50;;
66581;SDS011;53438;48.898;2.308;2022-12-20T14:21:21;10.20;;;3.45;;
66581;SDS011;53438;48.898;2.308;2022-12-20T14:23:47;6.13;;;2.33;;
66581;SDS011;53438;48.898;2.308;2022-12-20T14:26:38;7.13;;;2.90;;
66581;SDS011;53438;48.898;2.308;2022-12-20T14:29:11;7.07;;;2.95;;
66581;SDS011;53438;48.898;2.308;2022-12-20T14:31:41;5.57;;;2.42;;
66581;SDS011;53438;48.898;2.308;2022-12-20T14:36:35;8.57;;;3.73;;
66581;SDS011;53438;48.898;2.308;2022-12-20T14:39:20;5.70;;;2.23;;
66581;SDS011;53438;48.898;2.308;2022-12-20T14:42:11;7.35;;;2.90;;
66581;SDS011;53438;48.898;2.308;2022-12-20T14:44:38;6.57;;;2.20;;
66581;SDS011;53438;48.898;2.308;2022-12-20T14:47:10;5.47;;;2.42;;
66581;SDS011;53438;48.898;2.308;2022-12-20T14:49:43;7.18;;;2.85;;
66581;SDS011;53438;48.898;2.308;2022-12-20T14:52:14;5.43;;;2.60;;
66581;SDS011;53438;48.898;2.308;2022-12-20T14:57:21;8.95;;;2.88;;
66581;SDS011;53438;48.898;2.308;2022-12-20T15:03:18;10.90;;;3.40;;
66581;SDS011;53438;48.898;2.308;2022-12-20T15:05:52;7.07;;;3.30;;
66581;SDS011;53438;48.898;2.308;2022-12-20T15:16:02;5.17;;;2.50;;
66581;SDS011;53438;48.898;2.308;2022-12-20T15:18:49;4.97;;;3.47;;
66581;SDS011;53438;48.898;2.308;2022-12-20T15:21:32;10.77;;;3.30;;
66581;SDS011;53438;48.898;2.308;2022-12-20T15:24:01;5.20;;;2.92;;
66581;SDS011;53438;48.898;2.308;2022-12-20T15:26:31;7.75;;;3.65;;
66581;SDS011;53438;48.898;2.308;2022-12-20T15:28:57;6.25;;;2.60;;
66581;SDS011;53438;48.898;2.308;2022-12-20T15:31:23;6.47;;;2.93;;
66581;SDS011;53438;48.898;2.308;2022-12-20T15:33:50;10.70;;;3.30;;
66581;SDS011;53438;48.898;2.308;2022-12-20T15:36:19;5.28;;;2.60;;
66581;SDS011;53438;48.898;2.308;2022-12-20T15:38:46;5.00;;;2.60;;
66581;SDS011;53438;48.898;2.308;2022-12-20T15:41:15;6.13;;;2.92;;
66581;SDS011;53438;48.898;2.308;2022-12-20T15:43:58;9.05;;;3.80;;
66581;SDS011;53438;48.898;2.308;2022-12-20T15:46:27;9.20;;;3.90;;
66581;SDS011;53438;48.898;2.308;2022-12-20T15:48:53;7.87;;;3.67;;
66581;SDS011;53438;48.898;2.308;2022-12-20T15:51:34;10.02;;;3.45;;
66581;SDS011;53438;48.898;2.308;2022-12-20T15:54:02;8.33;;;4.17;;
66581;SDS011;53438;48.898;2.308;2022-12-20T15:56:29;5.97;;;3.55;;
66581;SDS011;53438;48.898;2.308;2022-12-20T15:58:54;8.20;;;3.70;;
66581;SDS011;53438;48.898;2.308;2022-12-20T16:01:24;7.27;;;3.57;;
66581;SDS011;53438;48.898;2.308;2022-12-20T16:03:53;10.00;;;4.30;;
66581;SDS011;53438;48.898;2.308;2022-12-20T16:06:18;9.73;;;3.58;;
66581;SDS011;53438;48.898;2.308;2022-12-20T16:08:44;6.47;;;5.03;;
66581;SDS011;53438;48.898;2.308;2022-12-20T16:11:14;9.60;;;4.10;;
66581;SDS011;53438;48.898;2.308;2022-12-20T16:13:52;9.23;;;4.28;;
66581;SDS011;53438;48.898;2.308;2022-12-20T16:16:19;10.38;;;4.45;;
66581;SDS011;53438;48.898;2.308;2022-12-20T16:18:46;7.72;;;4.22;;
66581;SDS011;53438;48.898;2.308;2022-12-20T16:21:14;8.67;;;3.80;;
66581;SDS011;53438;48.898;2.308;2022-12-20T16:23:44;6.97;;;3.63;;
66581;SDS011;53438;48.898;2.308;2022-12-20T16:26:13;9.63;;;3.93;;
66581;SDS011;53438;48.898;2.308;2022-12-20T16:28:40;7.05;;;3.72;;
66581;SDS011;53438;48.898;2.308;2022-12-20T16:33:52;7.50;;;3.95;;
66581;SDS011;53438;48.898;2.308;2022-12-20T16:36:19;9.75;;;4.60;;
66581;SDS011;53438;48.898;2.308;2022-12-20T16:38:45;8.67;;;4.53;;
66581;SDS011;53438;48.898;2.308;2022-12-20T16:41:13;11.23;;;4.20;;
66581;SDS011;53438;48.898;2.308;2022-12-20T16:43:40;8.75;;;4.25;;
66581;SDS011;53438;48.898;2.308;2022-12-20T16:46:08;9.77;;;4.00;;
66581;SDS011;53438;48.898;2.308;2022-12-20T16:48:36;10.77;;;4.43;;
66581;SDS011;53438;48.898;2.308;2022-12-20T16:51:01;8.13;;;4.30;;
66581;SDS011;53438;48.898;2.308;2022-12-20T16:53:27;10.10;;;5.97;;
66581;SDS011;53438;48.898;2.308;2022-12-20T16:55:53;8.43;;;5.00;;
66581;SDS011;53438;48.898;2.308;2022-12-20T16:58:19;13.32;;;6.32;;
66581;SDS011;53438;48.898;2.308;2022-12-20T17:00:45;10.10;;;5.30;;
66581;SDS011;53438;48.898;2.308;2022-12-20T17:03:11;10.85;;;4.45;;
66581;SDS011;53438;48.898;2.308;2022-12-20T17:05:37;7.87;;;4.00;;
66581;SDS011;53438;48.898;2.308;2022-12-20T17:08:03;8.52;;;3.75;;
66581;SDS011;53438;48.898;2.308;2022-12-20T17:10:29;10.02;;;4.30;;
66581;SDS011;53438;48.898;2.308;2022-12-20T17:12:55;8.00;;;4.20;;
66581;SDS011;53438;48.898;2.308;2022-12-20T17:17:48;10.48;;;4.40;;
66581;SDS011;53438;48.898;2.308;2022-12-20T17:20:15;8.82;;;4.57;;
66581;SDS011;53438;48.898;2.308;2022-12-20T17:22:41;12.57;;;6.37;;
66581;SDS011;53438;48.898;2.308;2022-12-20T17:25:28;12.40;;;5.65;;
66581;SDS011;53438;48.898;2.308;2022-12-20T17:27:56;7.47;;;4.05;;
66581;SDS011;53438;48.898;2.308;2022-12-20T17:30:22;8.97;;;4.77;;
66581;SDS011;53438;48.898;2.308;2022-12-20T17:32:49;9.98;;;4.70;;
66581;SDS011;53438;48.898;2.308;2022-12-20T17:35:25;14.23;;;6.73;;
66581;SDS011;53438;48.898;2.308;2022-12-20T17:37:53;12.52;;;6.30;;
66581;SDS011;53438;48.898;2.308;2022-12-20T17:40:20;10.05;;;4.93;;
66581;SDS011;53438;48.898;2.308;2022-12-20T17:42:47;10.07;;;5.18;;
66581;SDS011;53438;48.898;2.308;2022-12-20T17:45:20;12.17;;;4.73;;
66581;SDS011;53438;48.898;2.308;2022-12-20T17:47:52;10.05;;;5.22;;
66581;SDS011;53438;48.898;2.308;2022-12-20T17:50:18;9.15;;;5.28;;
66581;SDS011;53438;48.898;2.308;2022-12-20T17:52:44;9.95;;;5.57;;
66581;SDS011;53438;48.898;2.308;2022-12-20T17:55:14;10.30;;;5.80;;
66581;SDS011;53438;48.898;2.308;2022-12-20T17:57:41;11.20;;;5.27;;
66581;SDS011;53438;48.898;2.308;2022-12-20T18:00:09;9.95;;;4.80;;
66581;SDS011;53438;48.898;2.308;2022-12-20T18:02:51;8.30;;;5.28;;
66581;SDS011;53438;48.898;2.308;2022-12-20T18:05:17;10.98;;;4.88;;
66581;SDS011;53438;48.898;2.308;2022-12-20T18:07:47;16.85;;;8.70;;
66581;SDS011;53438;48.898;2.308;2022-12-20T18:10:13;12.90;;;5.73;;
66581;SDS011;53438;48.898;2.308;2022-12-20T18:12:40;9.93;;;4.95;;
66581;SDS011;53438;48.898;2.308;2022-12-20T18:15:05;13.00;;;5.60;;
66581;SDS011;53438;48.898;2.308;2022-12-20T18:17:32;11.85;;;5.43;;
66581;SDS011;53438;48.898;2.308;2022-12-20T18:19:58;11.23;;;5.97;;
66581;SDS011;53438;48.898;2.308;2022-12-20T18:22:24;15.07;;;6.17;;
66581;SDS011;53438;48.898;2.308;2022-12-20T18:24:49;11.80;;;6.53;;
66581;SDS011;53438;48.898;2.308;2022-12-20T18:27:14;12.97;;;5.97;;
66581;SDS011;53438;48.898;2.308;2022-12-20T18:29:40;12.52;;;5.85;;
66581;SDS011;53438;48.898;2.308;2022-12-20T18:32:05;12.88;;;5.70;;
66581;SDS011;53438;48.898;2.308;2022-12-20T18:34:30;10.53;;;5.37;;
66581;SDS011;53438;48.898;2.308;2022-12-20T18:36:56;10.70;;;5.47;;
66581;SDS011;53438;48.898;2.308;2022-12-20T18:39:21;10.47;;;5.43;;
66581;SDS011;53438;48.898;2.308;2022-12-20T18:41:47;9.50;;;4.60;;
66581;SDS011;53438;48.898;2.308;2022-12-20T18:44:12;12.80;;;4.80;;
66581;SDS011;53438;48.898;2.308;2022-12-20T18:46:38;10.80;;;6.10;;
66581;SDS011;53438;48.898;2.308;2022-12-20T18:49:04;8.88;;;5.28;;
66581;SDS011;53438;48.898;2.308;2022-12-20T18:51:31;16.13;;;6.07;;
66581;SDS011;53438;48.898;2.308;2022-12-20T18:54:00;10.75;;;6.13;;
66581;SDS011;53438;48.898;2.308;2022-12-20T18:56:28;14.30;;;5.93;;
66581;SDS011;53438;48.898;2.308;2022-12-20T18:58:55;11.18;;;5.95;;
66581;SDS011;53438;48.898;2.308;2022-12-20T19:01:22;10.90;;;6.30;;
66581;SDS011;53438;48.898;2.308;2022-12-20T19:03:49;8.40;;;5.20;;
66581;SDS011;53438;48.898;2.308;2022-12-20T19:06:15;12.30;;;6.20;;
66581;SDS011;53438;48.898;2.308;2022-12-20T19:08:41;14.80;;;5.90;;
66581;SDS011;53438;48.898;2.308;2022-12-20T19:11:07;13.07;;;6.17;;
66581;SDS011;53438;48.898;2.308;2022-12-20T19:13:34;11.93;;;4.55;;
66581;SDS011;53438;48.898;2.308;2022-12-20T19:16:11;7.47;;;4.80;;
66581;SDS011;53438;48.898;2.308;2022-12-20T19:18:47;11.10;;;5.10;;
66581;SDS011;53438;48.898;2.308;2022-12-20T19:21:14;11.47;;;5.20;;
66581;SDS011;53438;48.898;2.308;2022-12-20T19:23:45;11.85;;;5.68;;
66581;SDS011;53438;48.898;2.308;2022-12-20T19:26:12;9.88;;;4.63;;
66581;SDS011;53438;48.898;2.308;2022-12-20T19:28:39;7.72;;;4.50;;
66581;SDS011;53438;48.898;2.308;2022-12-20T19:31:11;9.97;;;4.70;;
66581;SDS011;53438;48.898;2.308;2022-12-20T19:33:39;12.07;;;5.25;;
66581;SDS011;53438;48.898;2.308;2022-12-20T19:36:13;9.57;;;4.88;;
66581;SDS011;53438;48.898;2.308;2022-12-20T19:38:41;7.55;;;4.15;;
66581;SDS011;53438;48.898;2.308;2022-12-20T19:41:09;11.00;;;4.57;;
66581;SDS011;53438;48.898;2.308;2022-12-20T19:43:34;9.60;;;4.93;;
66581;SDS011;53438;48.898;2.308;2022-12-20T19:46:00;7.63;;;4.13;;